sensor_id;sensor_type;location;lat;lon;timestamp;P1;durP1;ratioP1;P2;durP2;ratioP2
19495;SDS011;9888;48.606;9.630;2022-11-14T00:00:41;19.43;;;9.73;;
19495;SDS011;9888;48.606;9.630;2022-11-14T00:03:09;18.27;;;9.17;;
19495;SDS011;9888;48.606;9.630;2022-11-14T00:05:41;20.97;;;10.13;;
19495;SDS011;9888;48.606;9.630;2022-11-14T00:08:14;17.47;;;8.93;;
19495;SDS011;9888;48.606;9.630;2022-11-14T00:10:44;17.37;;;9.00;;
19495;SDS011;9888;48.606;9.630;2022-11-14T00:13:12;16.53;;;8.03;;
19495;SDS011;9888;48.606;9.630;2022-11-14T00:15:39;17.13;;;8.33;;
19495;SDS011;9888;48.606;9.630;2022-11-14T00:18:06;16.27;;;7.90;;
19495;SDS011;9888;48.606;9.630;2022-11-14T00:20:35;17.93;;;7.63;;
19495;SDS011;9888;48.606;9.630;2022-11-14T00:23:02;18.43;;;8.20;;
19495;SDS011;9888;48.606;9.630;2022-11-14T00:25:30;15.83;;;8.37;;
19495;SDS011;9888;48.606;9.630;2022-11-14T00:27:57;18.23;;;8.33;;
19495;SDS011;9888;48.606;9.630;2022-11-14T00:30:24;16.93;;;7.87;;
19495;SDS011;9888;48.606;9.630;2022-11-14T00:32:52;17.27;;;8.00;;
19495;SDS011;9888;48.606;9.630;2022-11-14T00:35:19;17.50;;;8.73;;
19495;SDS011;9888;48.606;9.630;2022-11-14T00:37:46;17.43;;;8.70;;
19495;SDS011;9888;48.606;9.630;2022-11-14T00:40:13;15.20;;;8.20;;
19495;SDS011;9888;48.606;9.630;2022-11-14T00:42:40;16.63;;;8.50;;
19495;SDS011;9888;48.606;9.630;2022-11-14T00:45:07;16.17;;;8.63;;
19495;SDS011;9888;48.606;9.630;2022-11-14T00:47:35;18.20;;;8.83;;
19495;SDS011;9888;48.606;9.630;2022-11-14T00:50:03;16.43;;;8.63;;
19495;SDS011;9888;48.606;9.630;2022-11-14T00:52:30;17.27;;;8.60;;
19495;SDS011;9888;48.606;9.630;2022-11-14T00:54:57;18.57;;;8.47;;
19495;SDS011;9888;48.606;9.630;2022-11-14T00:57:25;18.60;;;8.13;;
19495;SDS011;9888;48.606;9.630;2022-11-14T00:59:51;15.10;;;7.10;;
19495;SDS011;9888;48.606;9.630;2022-11-14T01:02:20;15.37;;;6.67;;
19495;SDS011;9888;48.606;9.630;2022-11-14T01:04:47;15.73;;;6.73;;
19495;SDS011;9888;48.606;9.630;2022-11-14T01:07:15;16.60;;;7.40;;
19495;SDS011;9888;48.606;9.630;2022-11-14T01:09:42;14.47;;;6.93;;
19495;SDS011;9888;48.606;9.630;2022-11-14T01:12:09;14.77;;;7.43;;
19495;SDS011;9888;48.606;9.630;2022-11-14T01:14:38;14.93;;;7.60;;
19495;SDS011;9888;48.606;9.630;2022-11-14T01:17:06;15.77;;;7.60;;
19495;SDS011;9888;48.606;9.630;2022-11-14T01:19:34;16.40;;;7.37;;
19495;SDS011;9888;48.606;9.630;2022-11-14T01:22:00;14.97;;;6.87;;
19495;SDS011;9888;48.606;9.630;2022-11-14T01:24:27;16.00;;;7.83;;
19495;SDS011;9888;48.606;9.630;2022-11-14T01:26:54;15.63;;;6.60;;
19495;SDS011;9888;48.606;9.630;2022-11-14T01:29:21;14.00;;;6.73;;
19495;SDS011;9888;48.606;9.630;2022-11-14T01:31:48;15.77;;;7.50;;
19495;SDS011;9888;48.606;9.630;2022-11-14T01:34:15;15.30;;;6.90;;
19495;SDS011;9888;48.606;9.630;2022-11-14T01:36:42;16.70;;;7.10;;
19495;SDS011;9888;48.606;9.630;2022-11-14T01:39:09;14.60;;;6.50;;
19495;SDS011;9888;48.606;9.630;2022-11-14T01:41:36;14.40;;;6.90;;
19495;SDS011;9888;48.606;9.630;2022-11-14T01:44:05;15.03;;;6.67;;
19495;SDS011;9888;48.606;9.630;2022-11-14T01:46:41;14.63;;;6.77;;
19495;SDS011;9888;48.606;9.630;2022-11-14T01:49:23;14.57;;;6.60;;
19495;SDS011;9888;48.606;9.630;2022-11-14T01:51:54;14.10;;;6.87;;
19495;SDS011;9888;48.606;9.630;2022-11-14T01:54:35;14.20;;;6.47;;
19495;SDS011;9888;48.606;9.630;2022-11-14T01:57:05;14.80;;;6.30;;
19495;SDS011;9888;48.606;9.630;2022-11-14T01:59:43;13.97;;;6.47;;
19495;SDS011;9888;48.606;9.630;2022-11-14T02:02:18;14.00;;;6.10;;
19495;SDS011;9888;48.606;9.630;2022-11-14T02:04:51;13.50;;;5.93;;
19495;SDS011;9888;48.606;9.630;2022-11-14T02:07:32;13.87;;;6.10;;
19495;SDS011;9888;48.606;9.630;2022-11-14T02:10:04;13.10;;;5.90;;
19495;SDS011;9888;48.606;9.630;2022-11-14T02:12:32;12.67;;;6.23;;
19495;SDS011;9888;48.606;9.630;2022-11-14T02:15:00;11.40;;;5.20;;
19495;SDS011;9888;48.606;9.630;2022-11-14T02:17:27;12.63;;;5.83;;
19495;SDS011;9888;48.606;9.630;2022-11-14T02:20:37;13.43;;;5.70;;
19495;SDS011;9888;48.606;9.630;2022-11-14T02:22:46;12.40;;;5.63;;
19495;SDS011;9888;48.606;9.630;2022-11-14T02:25:13;12.87;;;5.90;;
19495;SDS011;9888;48.606;9.630;2022-11-14T02:27:43;14.37;;;5.97;;
19495;SDS011;9888;48.606;9.630;2022-11-14T02:30:13;13.60;;;6.67;;
19495;SDS011;9888;48.606;9.630;2022-11-14T02:32:42;13.97;;;5.77;;
19495;SDS011;9888;48.606;9.630;2022-11-14T02:35:10;13.00;;;5.67;;
19495;SDS011;9888;48.606;9.630;2022-11-14T02:37:37;13.93;;;5.83;;
19495;SDS011;9888;48.606;9.630;2022-11-14T02:40:04;14.87;;;6.37;;
19495;SDS011;9888;48.606;9.630;2022-11-14T02:42:32;19.30;;;7.20;;
19495;SDS011;9888;48.606;9.630;2022-11-14T02:45:00;15.43;;;6.23;;
19495;SDS011;9888;48.606;9.630;2022-11-14T02:47:27;14.87;;;5.97;;
19495;SDS011;9888;48.606;9.630;2022-11-14T02:49:58;13.23;;;5.90;;
19495;SDS011;9888;48.606;9.630;2022-11-14T02:52:26;13.30;;;5.67;;
19495;SDS011;9888;48.606;9.630;2022-11-14T02:54:52;17.70;;;6.70;;
19495;SDS011;9888;48.606;9.630;2022-11-14T02:57:23;14.33;;;6.40;;
19495;SDS011;9888;48.606;9.630;2022-11-14T02:59:50;13.57;;;5.90;;
19495;SDS011;9888;48.606;9.630;2022-11-14T03:02:17;14.20;;;5.83;;
19495;SDS011;9888;48.606;9.630;2022-11-14T03:04:43;14.50;;;6.37;;
19495;SDS011;9888;48.606;9.630;2022-11-14T03:07:10;13.83;;;5.77;;
19495;SDS011;9888;48.606;9.630;2022-11-14T03:09:36;12.30;;;5.97;;
19495;SDS011;9888;48.606;9.630;2022-11-14T03:12:03;11.10;;;5.77;;
19495;SDS011;9888;48.606;9.630;2022-11-14T03:14:30;13.57;;;5.23;;
19495;SDS011;9888;48.606;9.630;2022-11-14T03:16:57;11.70;;;5.83;;
19495;SDS011;9888;48.606;9.630;2022-11-14T03:19:23;12.87;;;5.43;;
19495;SDS011;9888;48.606;9.630;2022-11-14T03:21:50;14.93;;;5.50;;
19495;SDS011;9888;48.606;9.630;2022-11-14T03:24:17;13.80;;;6.20;;
19495;SDS011;9888;48.606;9.630;2022-11-14T03:26:44;17.73;;;6.00;;
19495;SDS011;9888;48.606;9.630;2022-11-14T03:29:11;15.50;;;6.23;;
19495;SDS011;9888;48.606;9.630;2022-11-14T03:31:41;13.00;;;5.67;;
19495;SDS011;9888;48.606;9.630;2022-11-14T03:34:09;14.07;;;5.90;;
19495;SDS011;9888;48.606;9.630;2022-11-14T03:36:37;10.63;;;4.93;;
19495;SDS011;9888;48.606;9.630;2022-11-14T03:39:04;13.87;;;5.87;;
19495;SDS011;9888;48.606;9.630;2022-11-14T03:41:31;14.47;;;6.10;;
19495;SDS011;9888;48.606;9.630;2022-11-14T03:43:58;12.67;;;5.13;;
19495;SDS011;9888;48.606;9.630;2022-11-14T03:46:25;13.93;;;6.20;;
19495;SDS011;9888;48.606;9.630;2022-11-14T03:48:53;14.43;;;6.30;;
19495;SDS011;9888;48.606;9.630;2022-11-14T03:51:20;13.67;;;5.53;;
19495;SDS011;9888;48.606;9.630;2022-11-14T03:57:09;15.70;;;6.07;;
19495;SDS011;9888;48.606;9.630;2022-11-14T03:59:36;13.70;;;5.73;;
19495;SDS011;9888;48.606;9.630;2022-11-14T04:02:03;11.83;;;5.40;;
19495;SDS011;9888;48.606;9.630;2022-11-14T04:04:30;12.47;;;5.10;;
19495;SDS011;9888;48.606;9.630;2022-11-14T04:06:57;13.30;;;5.80;;
19495;SDS011;9888;48.606;9.630;2022-11-14T04:09:25;15.60;;;6.40;;
19495;SDS011;9888;48.606;9.630;2022-11-14T04:11:52;11.93;;;5.63;;
19495;SDS011;9888;48.606;9.630;2022-11-14T04:14:19;16.30;;;6.83;;
19495;SDS011;9888;48.606;9.630;2022-11-14T04:16:46;13.13;;;5.70;;
19495;SDS011;9888;48.606;9.630;2022-11-14T04:19:14;13.93;;;5.63;;
19495;SDS011;9888;48.606;9.630;2022-11-14T04:21:41;15.03;;;6.13;;
19495;SDS011;9888;48.606;9.630;2022-11-14T04:24:09;13.40;;;5.90;;
19495;SDS011;9888;48.606;9.630;2022-11-14T04:26:36;12.73;;;6.13;;
19495;SDS011;9888;48.606;9.630;2022-11-14T04:29:03;11.43;;;4.87;;
19495;SDS011;9888;48.606;9.630;2022-11-14T04:31:29;12.33;;;5.47;;
19495;SDS011;9888;48.606;9.630;2022-11-14T04:33:56;14.80;;;6.33;;
19495;SDS011;9888;48.606;9.630;2022-11-14T04:36:23;14.50;;;6.60;;
19495;SDS011;9888;48.606;9.630;2022-11-14T04:38:50;15.67;;;7.20;;
19495;SDS011;9888;48.606;9.630;2022-11-14T04:41:17;14.33;;;6.73;;
19495;SDS011;9888;48.606;9.630;2022-11-14T04:43:44;13.90;;;6.07;;
19495;SDS011;9888;48.606;9.630;2022-11-14T04:46:11;14.40;;;6.97;;
19495;SDS011;9888;48.606;9.630;2022-11-14T04:48:37;18.77;;;7.27;;
19495;SDS011;9888;48.606;9.630;2022-11-14T04:51:05;14.00;;;6.33;;
19495;SDS011;9888;48.606;9.630;2022-11-14T04:53:32;16.13;;;7.43;;
19495;SDS011;9888;48.606;9.630;2022-11-14T04:55:59;23.90;;;6.90;;
19495;SDS011;9888;48.606;9.630;2022-11-14T04:58:26;19.90;;;7.27;;
19495;SDS011;9888;48.606;9.630;2022-11-14T05:00:53;55.10;;;9.73;;
19495;SDS011;9888;48.606;9.630;2022-11-14T05:03:22;26.00;;;7.47;;
19495;SDS011;9888;48.606;9.630;2022-11-14T05:05:51;31.43;;;7.63;;
19495;SDS011;9888;48.606;9.630;2022-11-14T05:08:19;18.13;;;6.53;;
19495;SDS011;9888;48.606;9.630;2022-11-14T05:10:46;15.40;;;6.07;;
19495;SDS011;9888;48.606;9.630;2022-11-14T05:13:13;47.27;;;12.00;;
19495;SDS011;9888;48.606;9.630;2022-11-14T05:15:40;22.73;;;6.87;;
19495;SDS011;9888;48.606;9.630;2022-11-14T05:18:07;18.67;;;7.10;;
19495;SDS011;9888;48.606;9.630;2022-11-14T05:20:34;19.07;;;8.77;;
19495;SDS011;9888;48.606;9.630;2022-11-14T05:23:01;46.47;;;19.57;;
19495;SDS011;9888;48.606;9.630;2022-11-14T05:25:28;301.80;;;100.80;;
19495;SDS011;9888;48.606;9.630;2022-11-14T05:27:55;158.93;;;56.10;;
19495;SDS011;9888;48.606;9.630;2022-11-14T05:30:22;126.67;;;44.37;;
19495;SDS011;9888;48.606;9.630;2022-11-14T05:32:50;114.23;;;42.47;;
19495;SDS011;9888;48.606;9.630;2022-11-14T05:35:17;72.30;;;29.80;;
19495;SDS011;9888;48.606;9.630;2022-11-14T05:37:44;94.13;;;34.30;;
19495;SDS011;9888;48.606;9.630;2022-11-14T05:40:11;45.10;;;19.20;;
19495;SDS011;9888;48.606;9.630;2022-11-14T05:42:38;17.77;;;7.80;;
19495;SDS011;9888;48.606;9.630;2022-11-14T05:45:04;21.30;;;9.37;;
19495;SDS011;9888;48.606;9.630;2022-11-14T05:47:32;21.53;;;7.67;;
19495;SDS011;9888;48.606;9.630;2022-11-14T05:49:58;18.40;;;8.40;;
19495;SDS011;9888;48.606;9.630;2022-11-14T05:52:25;25.73;;;10.20;;
19495;SDS011;9888;48.606;9.630;2022-11-14T05:54:52;18.50;;;8.73;;
19495;SDS011;9888;48.606;9.630;2022-11-14T05:57:29;16.97;;;7.37;;
19495;SDS011;9888;48.606;9.630;2022-11-14T05:59:57;17.90;;;8.90;;
19495;SDS011;9888;48.606;9.630;2022-11-14T06:02:25;21.20;;;9.07;;
19495;SDS011;9888;48.606;9.630;2022-11-14T06:04:52;17.10;;;8.20;;
19495;SDS011;9888;48.606;9.630;2022-11-14T06:07:19;15.63;;;6.90;;
19495;SDS011;9888;48.606;9.630;2022-11-14T06:09:46;18.77;;;7.80;;
19495;SDS011;9888;48.606;9.630;2022-11-14T06:12:13;19.93;;;8.60;;
19495;SDS011;9888;48.606;9.630;2022-11-14T06:14:41;16.47;;;7.73;;
19495;SDS011;9888;48.606;9.630;2022-11-14T06:17:09;19.37;;;9.50;;
19495;SDS011;9888;48.606;9.630;2022-11-14T06:19:36;21.97;;;9.60;;
19495;SDS011;9888;48.606;9.630;2022-11-14T06:22:05;13.37;;;6.70;;
19495;SDS011;9888;48.606;9.630;2022-11-14T06:24:37;16.27;;;7.43;;
19495;SDS011;9888;48.606;9.630;2022-11-14T06:27:04;19.20;;;8.53;;
19495;SDS011;9888;48.606;9.630;2022-11-14T06:32:21;15.97;;;8.97;;
19495;SDS011;9888;48.606;9.630;2022-11-14T06:34:50;22.43;;;9.23;;
19495;SDS011;9888;48.606;9.630;2022-11-14T06:37:17;26.13;;;9.07;;
19495;SDS011;9888;48.606;9.630;2022-11-14T06:39:44;21.50;;;8.97;;
19495;SDS011;9888;48.606;9.630;2022-11-14T06:42:11;20.10;;;8.13;;
19495;SDS011;9888;48.606;9.630;2022-11-14T06:44:40;22.20;;;8.27;;
19495;SDS011;9888;48.606;9.630;2022-11-14T06:47:07;16.03;;;8.37;;
19495;SDS011;9888;48.606;9.630;2022-11-14T06:49:35;19.60;;;8.70;;
19495;SDS011;9888;48.606;9.630;2022-11-14T06:52:03;18.67;;;8.90;;
19495;SDS011;9888;48.606;9.630;2022-11-14T06:54:30;18.60;;;8.03;;
19495;SDS011;9888;48.606;9.630;2022-11-14T06:56:57;44.93;;;9.30;;
19495;SDS011;9888;48.606;9.630;2022-11-14T06:59:25;31.83;;;10.90;;
19495;SDS011;9888;48.606;9.630;2022-11-14T07:01:53;25.50;;;9.83;;
19495;SDS011;9888;48.606;9.630;2022-11-14T07:04:23;29.03;;;10.03;;
19495;SDS011;9888;48.606;9.630;2022-11-14T07:06:49;25.23;;;9.83;;
19495;SDS011;9888;48.606;9.630;2022-11-14T07:09:20;39.10;;;13.93;;
19495;SDS011;9888;48.606;9.630;2022-11-14T07:11:47;76.37;;;38.50;;
19495;SDS011;9888;48.606;9.630;2022-11-14T07:14:14;71.00;;;34.43;;
19495;SDS011;9888;48.606;9.630;2022-11-14T07:16:44;63.13;;;25.57;;
19495;SDS011;9888;48.606;9.630;2022-11-14T07:19:11;28.33;;;12.60;;
19495;SDS011;9888;48.606;9.630;2022-11-14T07:21:52;40.90;;;14.03;;
19495;SDS011;9888;48.606;9.630;2022-11-14T07:24:19;35.20;;;14.53;;
19495;SDS011;9888;48.606;9.630;2022-11-14T07:26:47;43.53;;;12.80;;
19495;SDS011;9888;48.606;9.630;2022-11-14T07:29:15;16.00;;;8.87;;
19495;SDS011;9888;48.606;9.630;2022-11-14T07:31:43;29.07;;;11.40;;
19495;SDS011;9888;48.606;9.630;2022-11-14T07:34:10;21.97;;;7.70;;
19495;SDS011;9888;48.606;9.630;2022-11-14T07:36:40;14.50;;;6.20;;
19495;SDS011;9888;48.606;9.630;2022-11-14T07:39:07;18.93;;;6.77;;
19495;SDS011;9888;48.606;9.630;2022-11-14T07:41:35;15.93;;;6.50;;
19495;SDS011;9888;48.606;9.630;2022-11-14T07:44:03;14.10;;;6.63;;
19495;SDS011;9888;48.606;9.630;2022-11-14T07:46:39;20.70;;;7.53;;
19495;SDS011;9888;48.606;9.630;2022-11-14T07:49:09;13.50;;;6.27;;
19495;SDS011;9888;48.606;9.630;2022-11-14T07:54:32;13.07;;;7.30;;
19495;SDS011;9888;48.606;9.630;2022-11-14T07:57:03;15.63;;;7.17;;
19495;SDS011;9888;48.606;9.630;2022-11-14T07:59:32;14.73;;;7.10;;
19495;SDS011;9888;48.606;9.630;2022-11-14T08:01:59;16.00;;;7.27;;
19495;SDS011;9888;48.606;9.630;2022-11-14T08:04:29;15.87;;;8.17;;
19495;SDS011;9888;48.606;9.630;2022-11-14T08:06:56;15.83;;;7.60;;
19495;SDS011;9888;48.606;9.630;2022-11-14T08:09:24;15.37;;;7.63;;
19495;SDS011;9888;48.606;9.630;2022-11-14T08:11:52;14.80;;;7.20;;
19495;SDS011;9888;48.606;9.630;2022-11-14T08:14:19;17.53;;;6.83;;
19495;SDS011;9888;48.606;9.630;2022-11-14T08:16:50;16.00;;;7.40;;
19495;SDS011;9888;48.606;9.630;2022-11-14T08:19:17;14.03;;;7.10;;
19495;SDS011;9888;48.606;9.630;2022-11-14T08:21:45;16.50;;;7.00;;
19495;SDS011;9888;48.606;9.630;2022-11-14T08:24:12;16.70;;;8.03;;
19495;SDS011;9888;48.606;9.630;2022-11-14T08:26:39;15.73;;;6.70;;
19495;SDS011;9888;48.606;9.630;2022-11-14T08:29:06;15.00;;;6.00;;
19495;SDS011;9888;48.606;9.630;2022-11-14T08:31:32;14.60;;;7.30;;
19495;SDS011;9888;48.606;9.630;2022-11-14T08:34:00;15.47;;;7.30;;
19495;SDS011;9888;48.606;9.630;2022-11-14T08:36:28;16.40;;;7.30;;
19495;SDS011;9888;48.606;9.630;2022-11-14T08:38:57;15.37;;;7.97;;
19495;SDS011;9888;48.606;9.630;2022-11-14T08:41:24;16.27;;;7.63;;
19495;SDS011;9888;48.606;9.630;2022-11-14T08:47:13;15.23;;;6.70;;
19495;SDS011;9888;48.606;9.630;2022-11-14T08:49:41;14.03;;;8.13;;
19495;SDS011;9888;48.606;9.630;2022-11-14T08:52:08;16.27;;;7.27;;
19495;SDS011;9888;48.606;9.630;2022-11-14T08:54:37;12.30;;;6.17;;
19495;SDS011;9888;48.606;9.630;2022-11-14T08:57:04;13.13;;;6.20;;
19495;SDS011;9888;48.606;9.630;2022-11-14T08:59:31;17.30;;;6.57;;
19495;SDS011;9888;48.606;9.630;2022-11-14T09:02:00;8.73;;;3.67;;
19495;SDS011;9888;48.606;9.630;2022-11-14T09:04:27;7.93;;;3.30;;
19495;SDS011;9888;48.606;9.630;2022-11-14T09:06:54;9.70;;;3.20;;
19495;SDS011;9888;48.606;9.630;2022-11-14T09:09:21;16.37;;;9.33;;
19495;SDS011;9888;48.606;9.630;2022-11-14T09:11:49;7.53;;;3.23;;
19495;SDS011;9888;48.606;9.630;2022-11-14T09:14:16;7.80;;;3.13;;
19495;SDS011;9888;48.606;9.630;2022-11-14T09:16:45;8.13;;;3.00;;
19495;SDS011;9888;48.606;9.630;2022-11-14T09:19:13;7.30;;;2.57;;
19495;SDS011;9888;48.606;9.630;2022-11-14T09:21:40;11.97;;;5.17;;
19495;SDS011;9888;48.606;9.630;2022-11-14T09:24:08;8.67;;;3.33;;
19495;SDS011;9888;48.606;9.630;2022-11-14T09:26:35;6.43;;;1.80;;
19495;SDS011;9888;48.606;9.630;2022-11-14T09:29:02;6.93;;;2.30;;
19495;SDS011;9888;48.606;9.630;2022-11-14T09:31:33;8.67;;;2.00;;
19495;SDS011;9888;48.606;9.630;2022-11-14T09:34:00;6.10;;;1.53;;
19495;SDS011;9888;48.606;9.630;2022-11-14T09:36:27;6.10;;;1.80;;
19495;SDS011;9888;48.606;9.630;2022-11-14T09:38:55;6.97;;;1.57;;
19495;SDS011;9888;48.606;9.630;2022-11-14T09:47:00;6.50;;;2.00;;
19495;SDS011;9888;48.606;9.630;2022-11-14T09:49:42;14.83;;;2.30;;
19495;SDS011;9888;48.606;9.630;2022-11-14T09:58:01;6.40;;;1.73;;
19495;SDS011;9888;48.606;9.630;2022-11-14T10:00:53;7.20;;;1.80;;
19495;SDS011;9888;48.606;9.630;2022-11-14T10:03:32;5.97;;;1.80;;
19495;SDS011;9888;48.606;9.630;2022-11-14T10:12:52;6.43;;;1.70;;
19495;SDS011;9888;48.606;9.630;2022-11-14T10:16:06;9.40;;;2.20;;
19495;SDS011;9888;48.606;9.630;2022-11-14T10:26:59;9.00;;;3.13;;
19495;SDS011;9888;48.606;9.630;2022-11-14T10:29:40;14.37;;;3.67;;
19495;SDS011;9888;48.606;9.630;2022-11-14T10:32:26;8.57;;;3.53;;
19495;SDS011;9888;48.606;9.630;2022-11-14T10:40:44;11.70;;;5.50;;
19495;SDS011;9888;48.606;9.630;2022-11-14T10:48:49;6.77;;;1.97;;
19495;SDS011;9888;48.606;9.630;2022-11-14T10:51:32;5.93;;;1.93;;
19495;SDS011;9888;48.606;9.630;2022-11-14T10:54:16;5.80;;;1.60;;
19495;SDS011;9888;48.606;9.630;2022-11-14T10:56:51;6.10;;;1.80;;
19495;SDS011;9888;48.606;9.630;2022-11-14T10:59:20;4.93;;;1.40;;
19495;SDS011;9888;48.606;9.630;2022-11-14T11:04:31;6.17;;;1.43;;
19495;SDS011;9888;48.606;9.630;2022-11-14T11:10:10;5.27;;;1.30;;
19495;SDS011;9888;48.606;9.630;2022-11-14T11:13:05;8.40;;;1.40;;
19495;SDS011;9888;48.606;9.630;2022-11-14T11:15:39;5.00;;;1.30;;
19495;SDS011;9888;48.606;9.630;2022-11-14T11:21:01;5.20;;;1.33;;
19495;SDS011;9888;48.606;9.630;2022-11-14T11:23:35;9.80;;;1.60;;
19495;SDS011;9888;48.606;9.630;2022-11-14T11:26:16;5.50;;;1.30;;
19495;SDS011;9888;48.606;9.630;2022-11-14T11:29:05;7.33;;;1.50;;
19495;SDS011;9888;48.606;9.630;2022-11-14T11:34:29;5.40;;;1.20;;
19495;SDS011;9888;48.606;9.630;2022-11-14T11:37:17;6.20;;;1.60;;
19495;SDS011;9888;48.606;9.630;2022-11-14T11:39:51;6.10;;;1.23;;
19495;SDS011;9888;48.606;9.630;2022-11-14T11:42:36;5.93;;;1.20;;
19495;SDS011;9888;48.606;9.630;2022-11-14T11:45:32;5.77;;;1.50;;
19495;SDS011;9888;48.606;9.630;2022-11-14T11:48:12;5.27;;;1.20;;
19495;SDS011;9888;48.606;9.630;2022-11-14T11:54:19;5.50;;;1.30;;
19495;SDS011;9888;48.606;9.630;2022-11-14T11:56:55;5.60;;;1.40;;
19495;SDS011;9888;48.606;9.630;2022-11-14T11:59:32;6.30;;;1.50;;
19495;SDS011;9888;48.606;9.630;2022-11-14T12:02:19;7.83;;;1.30;;
19495;SDS011;9888;48.606;9.630;2022-11-14T12:04:55;5.33;;;1.20;;
19495;SDS011;9888;48.606;9.630;2022-11-14T12:10:41;5.50;;;1.43;;
19495;SDS011;9888;48.606;9.630;2022-11-14T12:19:14;5.30;;;1.40;;
19495;SDS011;9888;48.606;9.630;2022-11-14T12:28:14;6.13;;;1.60;;
19495;SDS011;9888;48.606;9.630;2022-11-14T12:30:52;5.37;;;1.40;;
19495;SDS011;9888;48.606;9.630;2022-11-14T12:33:25;6.00;;;1.43;;
19495;SDS011;9888;48.606;9.630;2022-11-14T12:36:09;5.13;;;1.33;;
19495;SDS011;9888;48.606;9.630;2022-11-14T12:38:45;5.70;;;1.73;;
19495;SDS011;9888;48.606;9.630;2022-11-14T12:41:19;6.17;;;1.60;;
19495;SDS011;9888;48.606;9.630;2022-11-14T12:43:51;11.93;;;2.17;;
19495;SDS011;9888;48.606;9.630;2022-11-14T12:49:36;8.13;;;1.80;;
19495;SDS011;9888;48.606;9.630;2022-11-14T12:57:55;5.33;;;1.50;;
19495;SDS011;9888;48.606;9.630;2022-11-14T13:01:15;6.60;;;2.00;;
19495;SDS011;9888;48.606;9.630;2022-11-14T13:06:38;6.07;;;1.60;;
19495;SDS011;9888;48.606;9.630;2022-11-14T13:12:23;6.93;;;1.67;;
19495;SDS011;9888;48.606;9.630;2022-11-14T13:15:26;6.50;;;1.70;;
19495;SDS011;9888;48.606;9.630;2022-11-14T13:18:32;7.50;;;1.83;;
19495;SDS011;9888;48.606;9.630;2022-11-14T13:21:19;8.23;;;1.80;;
19495;SDS011;9888;48.606;9.630;2022-11-14T13:24:16;5.73;;;1.90;;
19495;SDS011;9888;48.606;9.630;2022-11-14T13:26:50;6.50;;;2.10;;
19495;SDS011;9888;48.606;9.630;2022-11-14T13:32:08;6.00;;;1.70;;
19495;SDS011;9888;48.606;9.630;2022-11-14T13:34:42;6.50;;;2.00;;
19495;SDS011;9888;48.606;9.630;2022-11-14T13:49:14;41.20;;;6.53;;
19495;SDS011;9888;48.606;9.630;2022-11-14T13:52:04;96.13;;;37.50;;
19495;SDS011;9888;48.606;9.630;2022-11-14T13:54:32;33.03;;;10.57;;
19495;SDS011;9888;48.606;9.630;2022-11-14T14:00:08;24.00;;;3.40;;
19495;SDS011;9888;48.606;9.630;2022-11-14T14:08:27;17.80;;;3.50;;
19495;SDS011;9888;48.606;9.630;2022-11-14T14:16:59;10.87;;;2.70;;
19495;SDS011;9888;48.606;9.630;2022-11-14T14:22:27;5.90;;;1.90;;
19495;SDS011;9888;48.606;9.630;2022-11-14T14:25:26;6.17;;;1.77;;
19495;SDS011;9888;48.606;9.630;2022-11-14T14:31:32;5.60;;;1.50;;
19495;SDS011;9888;48.606;9.630;2022-11-14T14:34:24;8.90;;;2.13;;
19495;SDS011;9888;48.606;9.630;2022-11-14T14:36:55;5.57;;;1.67;;
19495;SDS011;9888;48.606;9.630;2022-11-14T14:39:24;9.43;;;1.97;;
19495;SDS011;9888;48.606;9.630;2022-11-14T14:41:56;6.70;;;2.07;;
19495;SDS011;9888;48.606;9.630;2022-11-14T14:44:31;8.70;;;2.53;;
19495;SDS011;9888;48.606;9.630;2022-11-14T14:50:29;6.70;;;1.80;;
19495;SDS011;9888;48.606;9.630;2022-11-14T14:53:05;6.17;;;1.80;;
19495;SDS011;9888;48.606;9.630;2022-11-14T14:55:38;7.50;;;1.70;;
19495;SDS011;9888;48.606;9.630;2022-11-14T15:00:52;7.93;;;1.53;;
19495;SDS011;9888;48.606;9.630;2022-11-14T15:03:23;5.77;;;1.43;;
19495;SDS011;9888;48.606;9.630;2022-11-14T15:05:57;6.20;;;1.77;;
19495;SDS011;9888;48.606;9.630;2022-11-14T15:08:44;8.07;;;2.07;;
19495;SDS011;9888;48.606;9.630;2022-11-14T15:11:12;6.60;;;1.77;;
19495;SDS011;9888;48.606;9.630;2022-11-14T15:13:41;7.03;;;1.90;;
19495;SDS011;9888;48.606;9.630;2022-11-14T15:16:14;6.00;;;2.03;;
19495;SDS011;9888;48.606;9.630;2022-11-14T15:18:40;8.47;;;2.33;;
19495;SDS011;9888;48.606;9.630;2022-11-14T15:21:43;7.23;;;2.30;;
19495;SDS011;9888;48.606;9.630;2022-11-14T15:24:14;6.30;;;2.20;;
19495;SDS011;9888;48.606;9.630;2022-11-14T15:26:46;6.47;;;2.27;;
19495;SDS011;9888;48.606;9.630;2022-11-14T15:29:16;5.47;;;1.70;;
19495;SDS011;9888;48.606;9.630;2022-11-14T15:31:51;13.67;;;2.60;;
19495;SDS011;9888;48.606;9.630;2022-11-14T15:34:34;7.00;;;2.07;;
19495;SDS011;9888;48.606;9.630;2022-11-14T15:39:42;6.73;;;1.73;;
19495;SDS011;9888;48.606;9.630;2022-11-14T15:42:13;7.63;;;2.00;;
19495;SDS011;9888;48.606;9.630;2022-11-14T15:44:41;8.50;;;2.30;;
19495;SDS011;9888;48.606;9.630;2022-11-14T15:47:12;8.40;;;2.30;;
19495;SDS011;9888;48.606;9.630;2022-11-14T15:49:52;14.63;;;2.43;;
19495;SDS011;9888;48.606;9.630;2022-11-14T15:55:01;7.37;;;2.33;;
19495;SDS011;9888;48.606;9.630;2022-11-14T15:57:39;10.43;;;2.90;;
19495;SDS011;9888;48.606;9.630;2022-11-14T16:00:10;8.27;;;2.70;;
19495;SDS011;9888;48.606;9.630;2022-11-14T16:02:55;7.53;;;2.33;;
19495;SDS011;9888;48.606;9.630;2022-11-14T16:05:29;11.37;;;3.00;;
19495;SDS011;9888;48.606;9.630;2022-11-14T16:07:57;7.10;;;2.63;;
19495;SDS011;9888;48.606;9.630;2022-11-14T16:10:27;8.00;;;2.47;;
19495;SDS011;9888;48.606;9.630;2022-11-14T16:12:55;9.50;;;2.43;;
19495;SDS011;9888;48.606;9.630;2022-11-14T16:15:22;7.10;;;2.90;;
19495;SDS011;9888;48.606;9.630;2022-11-14T16:17:49;8.13;;;2.70;;
19495;SDS011;9888;48.606;9.630;2022-11-14T16:20:18;7.13;;;2.70;;
19495;SDS011;9888;48.606;9.630;2022-11-14T16:22:50;8.30;;;2.90;;
19495;SDS011;9888;48.606;9.630;2022-11-14T16:25:34;10.37;;;2.60;;
19495;SDS011;9888;48.606;9.630;2022-11-14T16:28:01;11.20;;;3.20;;
19495;SDS011;9888;48.606;9.630;2022-11-14T16:30:28;6.70;;;2.57;;
19495;SDS011;9888;48.606;9.630;2022-11-14T16:32:56;70.97;;;7.40;;
19495;SDS011;9888;48.606;9.630;2022-11-14T16:35:28;47.57;;;7.30;;
19495;SDS011;9888;48.606;9.630;2022-11-14T16:37:56;58.63;;;6.90;;
19495;SDS011;9888;48.606;9.630;2022-11-14T16:40:25;46.53;;;7.77;;
19495;SDS011;9888;48.606;9.630;2022-11-14T16:42:54;24.93;;;4.80;;
19495;SDS011;9888;48.606;9.630;2022-11-14T16:45:22;15.67;;;3.90;;
19495;SDS011;9888;48.606;9.630;2022-11-14T16:47:51;16.27;;;3.70;;
19495;SDS011;9888;48.606;9.630;2022-11-14T16:50:20;8.20;;;3.20;;
19495;SDS011;9888;48.606;9.630;2022-11-14T16:52:47;12.03;;;3.27;;
19495;SDS011;9888;48.606;9.630;2022-11-14T16:55:14;13.00;;;3.30;;
19495;SDS011;9888;48.606;9.630;2022-11-14T16:57:41;9.60;;;3.50;;
19495;SDS011;9888;48.606;9.630;2022-11-14T17:00:09;8.63;;;2.83;;
19495;SDS011;9888;48.606;9.630;2022-11-14T17:02:41;7.60;;;3.30;;
19495;SDS011;9888;48.606;9.630;2022-11-14T17:05:08;12.53;;;3.30;;
19495;SDS011;9888;48.606;9.630;2022-11-14T17:07:36;9.90;;;3.60;;
19495;SDS011;9888;48.606;9.630;2022-11-14T17:10:03;7.70;;;3.33;;
19495;SDS011;9888;48.606;9.630;2022-11-14T17:12:35;9.03;;;3.47;;
19495;SDS011;9888;48.606;9.630;2022-11-14T17:15:12;11.10;;;3.73;;
19495;SDS011;9888;48.606;9.630;2022-11-14T17:17:40;10.17;;;3.73;;
19495;SDS011;9888;48.606;9.630;2022-11-14T17:20:14;10.10;;;4.43;;
19495;SDS011;9888;48.606;9.630;2022-11-14T17:22:43;8.70;;;3.60;;
19495;SDS011;9888;48.606;9.630;2022-11-14T17:25:10;7.90;;;3.00;;
19495;SDS011;9888;48.606;9.630;2022-11-14T17:27:40;8.33;;;3.20;;
19495;SDS011;9888;48.606;9.630;2022-11-14T17:30:10;8.10;;;3.50;;
19495;SDS011;9888;48.606;9.630;2022-11-14T17:32:37;9.50;;;3.20;;
19495;SDS011;9888;48.606;9.630;2022-11-14T17:35:04;7.80;;;3.20;;